createdAt,value
2016-03-10T00:00:07.591Z,0.68
2016-03-10T00:01:07.610Z,0.62
2016-03-10T00:02:07.597Z,0.62
2016-03-10T00:03:07.600Z,0.6
2016-03-10T00:04:07.571Z,0.58
2016-03-10T00:05:07.574Z,0.6
2016-03-10T00:06:07.567Z,0.58
2016-03-10T00:07:07.554Z,0.52
2016-03-10T00:08:07.556Z,0.59
2016-03-10T00:09:07.559Z,0.47
2016-03-10T00:10:07.547Z,0.52
2016-03-10T00:11:07.517Z,0.55
2016-03-10T00:12:07.520Z,0.47
2016-03-10T00:13:07.522Z,0.49
2016-03-10T00:14:07.494Z,0.49
2016-03-10T00:15:07.497Z,0.39
2016-03-10T00:16:07.500Z,0.5
2016-03-10T00:17:07.486Z,0.31
2016-03-10T00:18:07.475Z,0.25
2016-03-10T00:19:07.477Z,0.31
2016-03-10T00:20:07.464Z,0.28
2016-03-10T00:21:07.466Z,0.15
2016-03-10T00:22:07.438Z,0.21
2016-03-10T00:23:07.456Z,0.15
2016-03-10T00:24:07.460Z,0.19
2016-03-10T00:25:07.446Z,0.16
2016-03-10T00:26:07.449Z,0.23
2016-03-10T00:27:07.420Z,0.15
2016-03-10T00:28:07.423Z,0.23
2016-03-10T00:29:07.301Z,0.18
2016-03-10T00:30:07.256Z,0.18
2016-03-10T00:31:07.416Z,0.21
2016-03-10T00:32:07.251Z,0.15
2016-03-10T00:33:07.384Z,0.18
2016-03-10T00:34:07.370Z,0.18
2016-03-10T00:35:07.373Z,0.16
2016-03-10T00:36:07.345Z,0.07
2016-03-10T00:37:07.364Z,0.08
2016-03-10T00:38:07.373Z,0.1
2016-03-10T00:39:07.328Z,0.1
2016-03-10T00:40:07.346Z,0.07
2016-03-10T00:41:07.317Z,0.01
2016-03-10T00:42:07.321Z,0
2016-03-10T00:43:07.292Z,-0.03
2016-03-10T00:44:07.295Z,-0.06
2016-03-10T00:45:07.313Z,-0.06
2016-03-10T00:46:07.270Z,-0.08
2016-03-10T00:47:07.272Z,-0.08
2016-03-10T00:48:07.259Z,-0.08
2016-03-10T00:49:07.261Z,-0.08
2016-03-10T00:50:07.264Z,-0.1
2016-03-10T00:51:07.251Z,-0.18
2016-03-10T00:52:07.254Z,-0.14
2016-03-10T00:53:07.226Z,-0.15
2016-03-10T00:54:07.228Z,-0.13
2016-03-10T00:55:07.230Z,-0.11
2016-03-10T00:56:07.217Z,-0.13
2016-03-10T00:57:07.205Z,-0.08
2016-03-10T00:58:07.238Z,-0.07
2016-03-10T00:59:07.195Z,-0.1
2016-03-10T01:00:07.197Z,-0.08
2016-03-10T01:01:07.200Z,-0.1
2016-03-10T01:02:07.171Z,-0.07
2016-03-10T01:03:07.158Z,-0.08
2016-03-10T01:04:07.160Z,-0.07
2016-03-10T01:05:07.149Z,-0.07
2016-03-10T01:06:07.151Z,-0.03
2016-03-10T01:07:07.138Z,-0.11
2016-03-10T01:08:07.124Z,-0.1
2016-03-10T01:09:07.127Z,-0.07
2016-03-10T01:10:07.115Z,-0.07
2016-03-10T01:11:07.102Z,0
2016-03-10T01:12:07.120Z,-0.07
2016-03-10T01:13:07.092Z,-0.11
2016-03-10T01:14:07.095Z,-0.1
2016-03-10T01:15:07.081Z,-0.13
2016-03-10T01:16:07.084Z,-0.11
2016-03-10T01:17:07.070Z,-0.11
2016-03-10T01:18:07.073Z,-0.08
2016-03-10T01:19:07.045Z,-0.08
2016-03-10T01:20:07.064Z,-0.1
2016-03-10T01:21:07.050Z,-0.1
2016-03-10T01:22:07.037Z,-0.11
2016-03-10T01:23:07.039Z,-0.07
2016-03-10T01:24:07.028Z,-0.13
2016-03-10T01:25:07.045Z,-0.11
2016-03-10T01:26:07.002Z,-0.03
2016-03-10T01:27:07.005Z,-0.1
2016-03-10T01:28:07.008Z,-0.06
2016-03-10T01:29:07.010Z,-0.08
2016-03-10T01:30:07.013Z,0.01
2016-03-10T01:31:06.983Z,-0.1
2016-03-10T01:32:06.971Z,-0.11
2016-03-10T01:33:06.958Z,-0.02
2016-03-10T01:34:06.977Z,-0.06
2016-03-10T01:35:06.947Z,-0.06
2016-03-10T01:36:06.934Z,-0.08
2016-03-10T01:37:06.952Z,-0.06
2016-03-10T01:38:06.924Z,-0.03
2016-03-10T01:39:06.958Z,0
2016-03-10T01:40:06.898Z,0
2016-03-10T01:41:09.918Z,-0.08
2016-03-10T01:42:06.888Z,-0.03
2016-03-10T01:43:06.704Z,0
2016-03-10T01:44:06.893Z,-0.06
2016-03-10T01:45:06.865Z,0.01
2016-03-10T01:46:06.867Z,-0.03
2016-03-10T01:47:06.871Z,-0.06
2016-03-10T01:48:06.857Z,-0.06
2016-03-10T01:49:06.876Z,-0.1
2016-03-10T01:50:06.847Z,-0.15
2016-03-10T01:51:06.834Z,-0.18
2016-03-10T01:52:06.806Z,-0.28
2016-03-10T01:53:06.809Z,-0.25
2016-03-10T01:54:06.842Z,-0.25
2016-03-10T01:55:06.783Z,-0.25
2016-03-10T01:56:06.817Z,-0.26
2016-03-10T01:57:06.788Z,-0.2
2016-03-10T01:58:06.759Z,-0.28
2016-03-10T01:59:06.761Z,-0.28
2016-03-10T02:00:06.749Z,-0.26
2016-03-10T02:01:06.752Z,-0.25
2016-03-10T02:02:06.738Z,-0.28
2016-03-10T02:03:06.726Z,-0.31
2016-03-10T02:04:06.729Z,-0.15
2016-03-10T02:05:06.715Z,-0.21
2016-03-10T02:06:06.563Z,-0.17
2016-03-10T02:07:06.690Z,-0.29
2016-03-10T02:08:06.677Z,-0.28
2016-03-10T02:09:06.696Z,-0.28
2016-03-10T02:10:06.683Z,-0.13
2016-03-10T02:11:06.669Z,-0.21
2016-03-10T02:12:06.657Z,-0.21
2016-03-10T02:13:06.643Z,-0.25
2016-03-10T02:14:06.646Z,-0.21
2016-03-10T02:15:06.649Z,-0.21
2016-03-10T02:16:06.651Z,-0.32
2016-03-10T02:17:06.623Z,-0.32
2016-03-10T02:18:06.625Z,-0.25
2016-03-10T02:19:06.597Z,-0.39
2016-03-10T02:20:06.600Z,-0.34
2016-03-10T02:21:06.587Z,-0.36
2016-03-10T02:22:06.589Z,-0.34
2016-03-10T02:23:06.609Z,-0.36
2016-03-10T02:24:06.579Z,-0.38
2016-03-10T02:25:06.598Z,-0.38
2016-03-10T02:26:06.553Z,-0.39
2016-03-10T02:27:06.556Z,-0.36
2016-03-10T02:28:06.543Z,-0.39
2016-03-10T02:29:06.531Z,-0.38
2016-03-10T02:30:06.549Z,-0.36
2016-03-10T02:31:06.536Z,-0.39
2016-03-10T02:32:06.538Z,-0.38
2016-03-10T02:33:06.494Z,-0.34
2016-03-10T02:34:06.513Z,-0.36
2016-03-10T02:35:06.483Z,-0.36
2016-03-10T02:36:06.471Z,-0.36
2016-03-10T02:37:06.505Z,-0.44
2016-03-10T02:38:06.477Z,-0.39
2016-03-10T02:39:06.463Z,-0.46
2016-03-10T02:40:06.497Z,-0.36
2016-03-10T02:41:06.453Z,-0.36
2016-03-10T02:42:06.440Z,-0.28
2016-03-10T02:43:06.427Z,-0.47
2016-03-10T02:44:06.462Z,-0.32
2016-03-10T02:45:06.417Z,-0.34
2016-03-10T02:46:06.435Z,-0.28
2016-03-10T02:47:06.406Z,-0.35
2016-03-10T02:48:06.394Z,-0.34
2016-03-10T02:49:06.396Z,-0.34
2016-03-10T02:50:06.384Z,-0.32
2016-03-10T02:51:06.386Z,-0.36
2016-03-10T02:52:06.390Z,-0.34
2016-03-10T02:53:06.361Z,-0.32
2016-03-10T02:54:06.364Z,-0.35
2016-03-10T02:55:06.350Z,-0.34
2016-03-10T02:56:06.353Z,-0.35
2016-03-10T02:57:06.325Z,-0.39
2016-03-10T02:58:06.328Z,-0.35
2016-03-10T02:59:06.173Z,-0.34
2016-03-10T03:00:06.222Z,-0.41
2016-03-10T03:01:06.303Z,-0.41
2016-03-10T03:02:06.291Z,-0.46
2016-03-10T03:03:06.294Z,-0.39
2016-03-10T03:04:06.296Z,-0.47
2016-03-10T03:05:06.268Z,-0.46
2016-03-10T03:06:06.099Z,-0.52
2016-03-10T03:07:06.258Z,-0.47
2016-03-10T03:08:06.260Z,-0.46
2016-03-10T03:09:06.232Z,-0.5
2016-03-10T03:10:06.234Z,-0.46
2016-03-10T03:11:06.221Z,-0.43
2016-03-10T03:12:06.208Z,-0.44
2016-03-10T03:13:06.258Z,-0.38
2016-03-10T03:14:06.213Z,-0.52
2016-03-10T03:15:06.216Z,-0.46
2016-03-10T03:16:06.188Z,-0.39
2016-03-10T03:17:06.191Z,-0.46
2016-03-10T03:18:06.178Z,-0.44
2016-03-10T03:19:06.165Z,-0.43
2016-03-10T03:20:06.168Z,-0.47
2016-03-10T03:21:06.140Z,-0.43
2016-03-10T03:22:06.157Z,-0.47
2016-03-10T03:23:06.145Z,-0.41
2016-03-10T03:24:06.131Z,-0.41
2016-03-10T03:25:06.150Z,-0.46
2016-03-10T03:26:06.106Z,-0.46
2016-03-10T03:27:06.124Z,-0.49
2016-03-10T03:28:06.158Z,-0.59
2016-03-10T03:29:06.097Z,-0.5
2016-03-10T03:30:06.085Z,-0.47
2016-03-10T03:31:06.072Z,-0.54
2016-03-10T03:32:06.075Z,-0.54
2016-03-10T03:33:06.061Z,-0.54
2016-03-10T03:34:06.049Z,-0.57
2016-03-10T03:35:06.067Z,-0.54
2016-03-10T03:36:06.023Z,-0.57
2016-03-10T03:37:06.041Z,-0.54
2016-03-10T03:38:06.012Z,-0.5
2016-03-10T03:39:06.015Z,-0.47
2016-03-10T03:40:06.002Z,-0.44
2016-03-10T03:41:05.990Z,-0.5
2016-03-10T03:42:05.992Z,-0.5
2016-03-10T03:43:06.026Z,-0.49
2016-03-10T03:44:05.981Z,-0.35
2016-03-10T03:45:05.984Z,-0.41
2016-03-10T03:46:05.956Z,-0.49
2016-03-10T03:47:05.959Z,-0.43
2016-03-10T03:48:05.945Z,-0.44
2016-03-10T03:49:05.949Z,-0.44
2016-03-10T03:50:05.920Z,-0.44
2016-03-10T03:51:05.923Z,-0.44
2016-03-10T03:52:05.925Z,-0.52
2016-03-10T03:53:05.912Z,-0.53
2016-03-10T03:54:05.900Z,-0.49
2016-03-10T03:55:05.903Z,-0.57
2016-03-10T03:56:05.905Z,-0.57
2016-03-10T03:57:05.876Z,-0.61
2016-03-10T03:58:05.925Z,-0.53
2016-03-10T03:59:05.866Z,-0.67
2016-03-10T04:00:05.853Z,-0.71
2016-03-10T04:01:05.856Z,-0.68
2016-03-10T04:02:05.842Z,-0.71
2016-03-10T04:03:05.814Z,-0.61
2016-03-10T04:04:05.864Z,-0.65
2016-03-10T04:05:05.867Z,-0.68
2016-03-10T04:06:05.885Z,-0.8
2016-03-10T04:07:05.794Z,-0.68
2016-03-10T04:08:05.780Z,-0.77
2016-03-10T04:09:05.783Z,-0.7
2016-03-10T04:10:05.771Z,-0.75
2016-03-10T04:11:05.773Z,-0.74
2016-03-10T04:12:05.760Z,-0.71
2016-03-10T04:13:05.762Z,-0.83
2016-03-10T04:14:05.766Z,-0.85
2016-03-10T04:15:05.752Z,-0.82
2016-03-10T04:16:05.568Z,-0.74
2016-03-10T04:17:05.726Z,-0.8
2016-03-10T04:18:05.699Z,-0.82
2016-03-10T04:19:05.717Z,-0.82
2016-03-10T04:20:05.720Z,-0.72
2016-03-10T04:21:05.723Z,-0.7
2016-03-10T04:22:05.679Z,-0.7
2016-03-10T04:23:05.665Z,-0.83
2016-03-10T04:24:05.684Z,-0.72
2016-03-10T04:25:05.655Z,-0.77
2016-03-10T04:26:05.657Z,-0.72
2016-03-10T04:27:05.644Z,-0.78
2016-03-10T04:28:05.662Z,-0.71
2016-03-10T04:29:05.619Z,-0.7
2016-03-10T04:30:05.622Z,-0.82
2016-03-10T04:31:05.608Z,-0.75
2016-03-10T04:32:05.611Z,-0.89
2016-03-10T04:33:05.614Z,-0.89
2016-03-10T04:34:05.586Z,-0.96
2016-03-10T04:35:05.603Z,-0.86
2016-03-10T04:36:05.590Z,-0.96
2016-03-10T04:37:05.561Z,-0.93
2016-03-10T04:38:05.564Z,-0.96
2016-03-10T04:39:05.552Z,-0.99
2016-03-10T04:40:05.585Z,-1.02
2016-03-10T04:41:05.526Z,-1.05
2016-03-10T04:42:05.543Z,-1.07
2016-03-10T04:43:05.546Z,-1.05
2016-03-10T04:44:05.534Z,-1.04
2016-03-10T04:45:05.552Z,-1.02
2016-03-10T04:46:05.539Z,-1.02
2016-03-10T04:47:05.495Z,-1.09
2016-03-10T04:48:05.498Z,-1.14
2016-03-10T04:49:05.485Z,-1.15
2016-03-10T04:50:05.471Z,-1.14
2016-03-10T04:51:05.443Z,-1.2
2016-03-10T04:52:05.476Z,-1.07
2016-03-10T04:53:05.449Z,-1.12
2016-03-10T04:54:05.436Z,-1.19
2016-03-10T04:55:05.423Z,-1.15
2016-03-10T04:56:05.409Z,-1.19
2016-03-10T04:57:05.475Z,-1.08
2016-03-10T04:58:05.414Z,-1.05
2016-03-10T04:59:05.387Z,-1.01
2016-03-10T05:00:05.389Z,-1.09
2016-03-10T05:01:05.376Z,-1.08
2016-03-10T05:02:05.378Z,-1.04
2016-03-10T05:03:05.366Z,-1.05
2016-03-10T05:04:05.369Z,-1.02
2016-03-10T05:05:05.340Z,-1.02
2016-03-10T05:06:05.327Z,-0.93
2016-03-10T05:07:05.346Z,-0.91
2016-03-10T05:08:05.317Z,-0.94
2016-03-10T05:09:05.319Z,-0.94
2016-03-10T05:10:05.307Z,-0.9
2016-03-10T05:11:05.294Z,-0.85
2016-03-10T05:12:05.313Z,-0.94
2016-03-10T05:13:05.300Z,-0.89
2016-03-10T05:14:05.286Z,-0.86
2016-03-10T05:15:05.289Z,-0.9
2016-03-10T05:16:05.260Z,-0.89
2016-03-10T05:17:05.263Z,-0.91
2016-03-10T05:18:05.235Z,-0.86
2016-03-10T05:19:05.237Z,-0.89
2016-03-10T05:20:05.256Z,-0.91
2016-03-10T05:21:05.227Z,-0.94
2016-03-10T05:22:05.229Z,-0.82
2016-03-10T05:23:05.217Z,-0.86
2016-03-10T05:24:05.220Z,-0.86
2016-03-10T05:25:05.284Z,-0.89
2016-03-10T05:26:05.178Z,-0.86
2016-03-10T05:27:05.196Z,-0.9
2016-03-10T05:28:05.168Z,-0.83
2016-03-10T05:29:05.170Z,-0.89
2016-03-10T05:30:05.142Z,-0.85
2016-03-10T05:31:05.161Z,-0.78
2016-03-10T05:32:05.163Z,-0.89
2016-03-10T05:33:05.134Z,-0.77
2016-03-10T05:34:05.152Z,-0.86
2016-03-10T05:35:05.139Z,-0.91
2016-03-10T05:36:05.111Z,-0.89
2016-03-10T05:37:05.129Z,-0.89
2016-03-10T05:38:05.085Z,-0.86
2016-03-10T05:39:05.103Z,-0.82
2016-03-10T05:40:05.074Z,-0.91
2016-03-10T05:41:05.077Z,-0.89
2016-03-10T05:42:05.080Z,-0.97
2016-03-10T05:43:05.052Z,-0.96
2016-03-10T05:44:05.086Z,-1.01
2016-03-10T05:45:05.041Z,-1.01
2016-03-10T05:46:05.044Z,-0.99
2016-03-10T05:47:05.047Z,-0.96
2016-03-10T05:48:05.003Z,-0.97
2016-03-10T05:49:05.021Z,-1.01
2016-03-10T05:50:05.008Z,-0.9
2016-03-10T05:51:04.980Z,-0.91
2016-03-10T05:52:05.013Z,-0.97
2016-03-10T05:53:04.970Z,-0.97
2016-03-10T05:54:04.987Z,-0.91
2016-03-10T05:55:04.959Z,-0.97
2016-03-10T05:56:04.946Z,-0.93
2016-03-10T05:57:04.933Z,-0.96
2016-03-10T05:58:04.920Z,-0.99
2016-03-10T05:59:04.923Z,-1.02
2016-03-10T06:00:04.909Z,-0.94
2016-03-10T06:01:04.897Z,-0.86
2016-03-10T06:02:04.883Z,-0.89
2016-03-10T06:03:04.902Z,-0.85
2016-03-10T06:04:04.905Z,-0.82
2016-03-10T06:05:04.877Z,-0.77
2016-03-10T06:06:04.862Z,-0.7
2016-03-10T06:07:04.864Z,-0.65
2016-03-10T06:08:04.695Z,-0.78
2016-03-10T06:09:04.839Z,-0.72
2016-03-10T06:10:04.842Z,-0.72
2016-03-10T06:11:04.844Z,-0.71
2016-03-10T06:12:04.814Z,-0.68
2016-03-10T06:13:04.817Z,-0.7
2016-03-10T06:14:04.805Z,-0.71
2016-03-10T06:15:04.792Z,-0.65
2016-03-10T06:16:04.794Z,-0.57
2016-03-10T06:17:04.782Z,-0.56
2016-03-10T06:18:04.785Z,-0.49
2016-03-10T06:19:04.788Z,-0.5
2016-03-10T06:20:04.758Z,-0.44
2016-03-10T06:21:04.746Z,-0.43
2016-03-10T06:22:04.732Z,-0.36
2016-03-10T06:23:04.735Z,-0.38
2016-03-10T06:24:04.722Z,-0.31
2016-03-10T06:25:04.725Z,-0.36
2016-03-10T06:26:04.712Z,-0.36
2016-03-10T06:27:04.699Z,-0.34
2016-03-10T06:28:04.686Z,-0.34
2016-03-10T06:29:04.689Z,-0.26
2016-03-10T06:30:04.692Z,-0.28
2016-03-10T06:31:04.679Z,-0.28
2016-03-10T06:32:04.665Z,-0.25
2016-03-10T06:33:04.654Z,-0.23
2016-03-10T06:34:04.656Z,-0.17
2016-03-10T06:35:07.659Z,-0.15
2016-03-10T06:36:04.645Z,-0.17
2016-03-10T06:37:04.617Z,-0.08
2016-03-10T06:38:04.619Z,-0.06
2016-03-10T06:39:04.623Z,-0.06
2016-03-10T06:40:04.609Z,-0.06
2016-03-10T06:41:04.597Z,-0.02
2016-03-10T06:42:04.583Z,0.04
2016-03-10T06:43:04.586Z,-0.02
2016-03-10T06:44:04.573Z,0.05
2016-03-10T06:45:04.592Z,0.12
2016-03-10T06:46:04.594Z,0.18
2016-03-10T06:47:04.566Z,0.18
2016-03-10T06:48:04.569Z,0.15
2016-03-10T06:49:04.556Z,0.16
2016-03-10T06:50:04.558Z,0.28
2016-03-10T06:51:04.529Z,0.29
2016-03-10T06:52:04.517Z,0.37
2016-03-10T06:53:04.519Z,0.37
2016-03-10T06:54:04.507Z,0.29
2016-03-10T06:55:04.509Z,0.43
2016-03-10T06:56:04.527Z,0.41
2016-03-10T06:57:04.482Z,0.43
2016-03-10T06:58:04.502Z,0.4
2016-03-10T06:59:04.473Z,0.5
2016-03-10T07:00:04.491Z,0.49
2016-03-10T07:01:04.479Z,0.55
2016-03-10T07:02:04.497Z,0.55
2016-03-10T07:03:04.468Z,0.63
2016-03-10T07:04:04.455Z,0.6
2016-03-10T07:05:04.442Z,0.62
2016-03-10T07:06:04.429Z,0.63
2016-03-10T07:07:04.432Z,0.65
2016-03-10T07:08:04.435Z,0.65
2016-03-10T07:09:04.406Z,0.68
2016-03-10T07:10:04.408Z,0.68
2016-03-10T07:11:04.411Z,0.73
2016-03-10T07:12:04.414Z,0.6
2016-03-10T07:13:04.401Z,0.66
2016-03-10T07:14:04.403Z,0.77
2016-03-10T07:15:04.392Z,0.7
2016-03-10T07:16:04.394Z,0.77
2016-03-10T07:17:04.365Z,0.83
2016-03-10T07:18:04.383Z,0.91
2016-03-10T07:19:04.386Z,0.86
2016-03-10T07:20:04.388Z,0.95
2016-03-10T07:21:04.361Z,0.94
2016-03-10T07:22:04.347Z,0.94
2016-03-10T07:23:04.335Z,0.98
2016-03-10T07:24:04.321Z,1.13
2016-03-10T07:25:04.324Z,1.19
2016-03-10T07:26:04.327Z,1.22
2016-03-10T07:27:04.298Z,1.24
2016-03-10T07:28:04.316Z,1.34
2016-03-10T07:29:04.319Z,1.38
2016-03-10T07:30:04.307Z,1.45
2016-03-10T07:31:04.309Z,1.73
2016-03-10T07:32:04.280Z,2.1
2016-03-10T07:33:04.282Z,2.65
2016-03-10T07:34:04.271Z,3.13
2016-03-10T07:35:04.288Z,3.7
2016-03-10T07:36:04.276Z,4.24
2016-03-10T07:37:04.247Z,4.74
2016-03-10T07:38:04.265Z,5.07
2016-03-10T07:39:04.237Z,5.43
2016-03-10T07:40:04.255Z,5.76
2016-03-10T07:41:04.258Z,6.14
2016-03-10T07:42:04.261Z,6.45
2016-03-10T07:43:04.248Z,6.77
2016-03-10T07:44:04.234Z,6.89
2016-03-10T07:45:04.253Z,6.93
2016-03-10T07:46:04.240Z,6.99
2016-03-10T07:47:04.222Z,6.93
2016-03-10T07:48:04.232Z,7.21
2016-03-10T07:49:04.229Z,7.13
2016-03-10T07:50:04.210Z,7.2
2016-03-10T07:51:04.207Z,7.31
2016-03-10T07:52:04.221Z,7.42
2016-03-10T07:53:04.222Z,7.47
2016-03-10T07:54:04.207Z,7.53
2016-03-10T07:55:04.222Z,7.73
2016-03-10T07:56:04.208Z,7.88
2016-03-10T07:57:04.240Z,7.98
2016-03-10T07:58:04.055Z,8.05
2016-03-10T07:59:04.213Z,8.23
2016-03-10T08:00:04.199Z,8.34
2016-03-10T08:01:04.217Z,8.2
2016-03-10T08:02:04.203Z,8.46
2016-03-10T08:03:04.206Z,8.52
2016-03-10T08:04:04.224Z,8.58
2016-03-10T08:05:04.226Z,8.6
2016-03-10T08:06:04.229Z,8.56
2016-03-10T08:07:04.231Z,8.64
2016-03-10T08:08:04.217Z,8.69
2016-03-10T08:09:04.236Z,8.73
2016-03-10T08:10:04.254Z,8.69
2016-03-10T08:11:04.242Z,8.85
2016-03-10T08:12:04.244Z,8.88
2016-03-10T08:13:04.231Z,8.89
2016-03-10T08:14:04.249Z,9
2016-03-10T08:15:04.253Z,9.08
2016-03-10T08:16:04.239Z,9.11
2016-03-10T08:17:04.242Z,9.21
2016-03-10T08:18:04.276Z,9.32
2016-03-10T08:19:04.247Z,9.58
2016-03-10T08:20:04.281Z,9.74
2016-03-10T08:21:04.268Z,9.89
2016-03-10T08:22:04.256Z,9.72
2016-03-10T08:23:04.274Z,9.32
2016-03-10T08:24:04.277Z,8.74
2016-03-10T08:25:04.279Z,8.05
2016-03-10T08:26:04.297Z,7.45
2016-03-10T08:27:04.300Z,6.81
2016-03-10T08:28:04.287Z,6.41
2016-03-10T08:29:04.290Z,5.91
2016-03-10T08:30:04.293Z,5.59
2016-03-10T08:31:04.280Z,5.33
2016-03-10T08:32:04.298Z,5.25
2016-03-10T08:33:04.301Z,5.08
2016-03-10T08:34:04.288Z,4.94
2016-03-10T08:35:04.321Z,4.89
2016-03-10T08:36:04.293Z,4.7
2016-03-10T08:37:04.326Z,4.63
2016-03-10T08:38:04.315Z,4.48
2016-03-10T08:39:04.317Z,4.49
2016-03-10T08:40:04.163Z,4.44
2016-03-10T08:41:04.291Z,4.38
2016-03-10T08:42:04.309Z,4.34
2016-03-10T08:43:04.296Z,4.2
2016-03-10T08:44:04.331Z,4.26
2016-03-10T08:45:04.302Z,4.24
2016-03-10T08:46:04.304Z,4.24
2016-03-10T08:47:04.291Z,4.34
2016-03-10T08:48:04.325Z,4.35
2016-03-10T08:49:04.312Z,4.34
2016-03-10T08:50:04.299Z,4.48
2016-03-10T08:51:04.302Z,4.45
2016-03-10T08:52:04.305Z,4.41
2016-03-10T08:53:04.308Z,4.5
2016-03-10T08:54:04.295Z,4.5
2016-03-10T08:55:04.297Z,4.5
2016-03-10T08:56:04.285Z,4.49
2016-03-10T08:57:04.303Z,4.48
2016-03-10T08:58:04.321Z,4.32
2016-03-10T08:59:04.167Z,4.17
2016-03-10T09:00:04.279Z,4.14
2016-03-10T09:01:04.282Z,4.22
2016-03-10T09:02:04.285Z,4.23
2016-03-10T09:03:04.287Z,4.23
2016-03-10T09:04:04.307Z,4.34
2016-03-10T09:05:04.277Z,4.44
2016-03-10T09:06:04.265Z,4.53
2016-03-10T09:07:04.263Z,4.52
2016-03-10T09:08:04.281Z,4.67
2016-03-10T09:09:04.269Z,4.77
2016-03-10T09:10:04.255Z,4.8
2016-03-10T09:11:04.274Z,4.93
2016-03-10T09:12:04.292Z,5
2016-03-10T09:13:04.264Z,5.07
2016-03-10T09:14:04.282Z,5.07
2016-03-10T09:15:04.268Z,5.17
2016-03-10T09:16:04.272Z,5.12
2016-03-10T09:17:04.243Z,5.12
2016-03-10T09:18:04.262Z,5.29
2016-03-10T09:19:04.264Z,5.25
2016-03-10T09:20:04.251Z,5.18
2016-03-10T09:21:04.285Z,5.15
2016-03-10T09:22:04.256Z,5.23
2016-03-10T09:23:04.260Z,5.17
2016-03-10T09:24:04.262Z,5.29
2016-03-10T09:25:04.248Z,5.33
2016-03-10T09:26:04.236Z,5.38
2016-03-10T09:27:04.239Z,5.33
2016-03-10T09:28:04.242Z,5.36
2016-03-10T09:29:04.292Z,5.53
2016-03-10T09:30:04.216Z,5.53
2016-03-10T09:31:04.234Z,5.57
2016-03-10T09:32:04.205Z,5.61
2016-03-10T09:33:04.208Z,5.66
2016-03-10T09:34:04.211Z,5.68
2016-03-10T09:35:04.228Z,5.61
2016-03-10T09:36:04.216Z,5.57
2016-03-10T09:37:04.234Z,5.64
2016-03-10T09:38:04.206Z,5.66
2016-03-10T09:39:04.239Z,5.73
2016-03-10T09:40:04.228Z,5.64
2016-03-10T09:41:04.199Z,5.64
2016-03-10T09:42:04.202Z,5.59
2016-03-10T09:43:04.219Z,5.62
2016-03-10T09:44:04.191Z,5.66
2016-03-10T09:45:04.194Z,5.64
2016-03-10T09:46:04.196Z,5.51
2016-03-10T09:47:04.199Z,5.51
2016-03-10T09:48:04.202Z,5.48
2016-03-10T09:49:04.188Z,5.47
2016-03-10T09:50:04.191Z,5.39
2016-03-10T09:51:04.184Z,5.53
2016-03-10T09:52:04.187Z,5.56
2016-03-10T09:53:04.189Z,5.59
2016-03-10T09:54:04.191Z,5.66
2016-03-10T09:55:04.179Z,5.75
2016-03-10T09:56:04.197Z,5.76
2016-03-10T09:57:04.168Z,5.82
2016-03-10T09:58:04.187Z,5.83
2016-03-10T09:59:04.237Z,5.8
2016-03-10T10:00:04.176Z,5.84
2016-03-10T10:01:04.163Z,5.89
2016-03-10T10:02:04.167Z,5.89
2016-03-10T10:03:04.184Z,5.9
2016-03-10T10:04:04.156Z,5.93
2016-03-10T10:05:04.158Z,5.99
2016-03-10T10:06:04.145Z,6.01
2016-03-10T10:07:04.148Z,6.04
2016-03-10T10:08:04.135Z,6.02
2016-03-10T10:09:04.138Z,6.08
2016-03-10T10:10:04.203Z,6.2
2016-03-10T10:11:04.143Z,6.38
2016-03-10T10:12:04.146Z,6.45
2016-03-10T10:13:04.149Z,6.57
2016-03-10T10:14:04.151Z,6.64
2016-03-10T10:15:05.091Z,6.67
2016-03-10T10:16:04.140Z,6.7
2016-03-10T10:17:04.160Z,6.79
2016-03-10T10:18:04.162Z,6.85
2016-03-10T10:19:04.134Z,6.87
2016-03-10T10:20:04.152Z,6.95
2016-03-10T10:21:04.139Z,6.84
2016-03-10T10:22:04.142Z,7.03
2016-03-10T10:23:04.145Z,7.18
2016-03-10T10:24:04.132Z,7.29
2016-03-10T10:25:04.150Z,7.38
2016-03-10T10:26:04.136Z,7.36
2016-03-10T10:27:04.139Z,7.43
2016-03-10T10:28:04.158Z,7.43
2016-03-10T10:29:04.145Z,7.43
2016-03-10T10:30:04.148Z,7.33
2016-03-10T10:31:04.150Z,7.36
2016-03-10T10:32:04.137Z,7.32
2016-03-10T10:33:04.125Z,7.21
2016-03-10T10:34:04.142Z,7.17
2016-03-10T10:35:04.130Z,7.13
2016-03-10T10:36:04.148Z,7.03
2016-03-10T10:37:04.150Z,7.05
2016-03-10T10:38:04.138Z,7.03
2016-03-10T10:39:04.125Z,7.03
2016-03-10T10:40:04.127Z,7.03
2016-03-10T10:41:04.146Z,7.07
2016-03-10T10:42:04.133Z,7.1
2016-03-10T10:43:04.135Z,7.15
2016-03-10T10:44:04.138Z,7.17
2016-03-10T10:45:04.141Z,7.29
2016-03-10T10:46:04.143Z,7.31
2016-03-10T10:47:04.147Z,7.33
2016-03-10T10:48:04.118Z,7.33
2016-03-10T10:49:04.136Z,7.42
2016-03-10T10:50:04.123Z,7.4
2016-03-10T10:51:03.970Z,7.5
2016-03-10T10:52:04.129Z,7.6
2016-03-10T10:53:04.115Z,7.57
2016-03-10T10:54:04.118Z,7.66
2016-03-10T10:55:04.121Z,7.57
2016-03-10T10:56:04.124Z,7.72
2016-03-10T10:57:04.126Z,7.67
2016-03-10T10:58:04.114Z,7.77
2016-03-10T10:59:04.131Z,7.76
2016-03-10T11:00:04.119Z,7.91
2016-03-10T11:01:04.137Z,7.91
2016-03-10T11:02:04.140Z,7.95
2016-03-10T11:03:04.112Z,7.9
2016-03-10T11:04:04.114Z,7.9
2016-03-10T11:05:04.117Z,7.9
2016-03-10T11:06:04.119Z,7.83
2016-03-10T11:07:04.122Z,7.91
2016-03-10T11:08:04.124Z,7.83
2016-03-10T11:09:04.112Z,7.87
2016-03-10T11:10:04.130Z,7.97
2016-03-10T11:11:04.116Z,7.83
2016-03-10T11:12:04.119Z,7.83
2016-03-10T11:13:04.122Z,7.85
2016-03-10T11:14:04.125Z,7.85
2016-03-10T11:15:04.128Z,7.82
2016-03-10T11:16:04.443Z,7.77
2016-03-10T11:17:04.133Z,7.76
2016-03-10T11:18:04.136Z,7.76
2016-03-10T11:19:04.138Z,7.79
2016-03-10T11:20:04.141Z,7.77
2016-03-10T11:21:04.128Z,7.76
2016-03-10T11:22:04.115Z,7.95
2016-03-10T11:23:04.118Z,7.91
2016-03-10T11:24:04.121Z,8.01
2016-03-10T11:25:04.107Z,8.13
2016-03-10T11:26:04.110Z,8.16
2016-03-10T11:27:04.113Z,8.2
2016-03-10T11:28:04.116Z,8.13
2016-03-10T11:29:04.118Z,8.01
2016-03-10T11:30:04.121Z,8
2016-03-10T11:31:04.124Z,7.94
2016-03-10T11:32:04.111Z,7.95
2016-03-10T11:33:04.114Z,8.03
2016-03-10T11:34:04.117Z,8.08
2016-03-10T11:35:04.119Z,8.23
2016-03-10T11:36:04.106Z,8.19
2016-03-10T11:37:04.109Z,8.19
2016-03-10T11:38:04.112Z,8.26
2016-03-10T11:39:04.114Z,8.15
2016-03-10T11:40:04.117Z,8.2
2016-03-10T11:41:04.119Z,8.03
2016-03-10T11:42:04.122Z,7.98
2016-03-10T11:43:04.125Z,7.98
2016-03-10T11:44:04.127Z,7.95
2016-03-10T11:45:04.115Z,7.94
2016-03-10T11:46:04.118Z,7.9
2016-03-10T11:47:04.120Z,7.91
2016-03-10T11:48:04.107Z,7.93
2016-03-10T11:49:04.110Z,7.98
2016-03-10T11:50:04.113Z,8.03
2016-03-10T11:51:04.115Z,8.01
2016-03-10T11:52:04.118Z,8.13
2016-03-10T11:53:04.137Z,8.2
2016-03-10T11:54:04.140Z,8.27
2016-03-10T11:55:04.126Z,8.42
2016-03-10T11:56:04.129Z,8.36
2016-03-10T11:57:04.116Z,8.48
2016-03-10T11:58:04.135Z,8.6
2016-03-10T11:59:04.104Z,8.56
2016-03-10T12:00:04.106Z,8.7
2016-03-10T12:01:04.127Z,8.73
2016-03-10T12:02:04.129Z,8.89
2016-03-10T12:03:04.114Z,8.91
2016-03-10T12:04:04.117Z,8.91
2016-03-10T12:05:04.119Z,8.85
2016-03-10T12:06:04.123Z,8.89
2016-03-10T12:07:04.108Z,8.97
2016-03-10T12:08:04.112Z,8.99
2016-03-10T12:09:04.115Z,8.91
2016-03-10T12:10:04.116Z,8.85
2016-03-10T12:11:04.120Z,8.76
2016-03-10T12:12:04.122Z,8.79
2016-03-10T12:13:04.124Z,8.88
2016-03-10T12:14:04.127Z,8.88
2016-03-10T12:15:04.130Z,8.95
2016-03-10T12:16:04.133Z,9.02
2016-03-10T12:17:04.119Z,9.04
2016-03-10T12:18:04.123Z,9.03
2016-03-10T12:19:04.125Z,9.21
2016-03-10T12:20:04.144Z,9.18
2016-03-10T12:21:04.131Z,9.25
2016-03-10T12:22:04.133Z,9.37
2016-03-10T12:23:04.136Z,9.34
2016-03-10T12:24:04.124Z,9.26
2016-03-10T12:25:04.141Z,9.19
2016-03-10T12:26:04.144Z,9.18
2016-03-10T12:27:04.147Z,8.99
2016-03-10T12:28:04.134Z,9.02
2016-03-10T12:29:04.137Z,9.06
2016-03-10T12:30:04.140Z,8.99
2016-03-10T12:31:04.143Z,9.04
2016-03-10T12:32:04.129Z,9.04
2016-03-10T12:33:04.148Z,8.94
2016-03-10T12:34:04.182Z,8.94
2016-03-10T12:35:04.153Z,8.87
2016-03-10T12:36:04.156Z,8.84
2016-03-10T12:37:04.143Z,8.81
2016-03-10T12:38:04.145Z,8.78
2016-03-10T12:39:04.148Z,8.84
2016-03-10T12:40:04.167Z,8.88
2016-03-10T12:41:04.154Z,8.91
2016-03-10T12:42:04.141Z,8.88
2016-03-10T12:43:04.159Z,8.85
2016-03-10T12:44:04.147Z,8.84
2016-03-10T12:45:04.149Z,8.99
2016-03-10T12:46:04.167Z,9.11
2016-03-10T12:47:04.139Z,9.16
2016-03-10T12:48:04.157Z,9.18
2016-03-10T12:49:04.175Z,9.25
2016-03-10T12:50:04.162Z,9.19
2016-03-10T12:51:04.149Z,9.21
2016-03-10T12:52:04.152Z,9.18
2016-03-10T12:53:04.155Z,9.13
2016-03-10T12:54:04.158Z,9.19
2016-03-10T12:55:04.191Z,9.13
2016-03-10T12:56:04.163Z,9.11
2016-03-10T12:57:04.196Z,9.19
2016-03-10T12:58:04.168Z,9.19
2016-03-10T12:59:04.186Z,9.11
2016-03-10T13:00:04.189Z,9.14
2016-03-10T13:01:04.176Z,9.08
2016-03-10T13:02:04.273Z,9.13
2016-03-10T13:03:04.166Z,9.11
2016-03-10T13:04:04.185Z,9.11
2016-03-10T13:05:04.156Z,9.02
2016-03-10T13:06:04.159Z,9
2016-03-10T13:07:04.176Z,9.06
2016-03-10T13:08:04.148Z,9.02
2016-03-10T13:09:04.401Z,9.04